sensor_id;sensor_type;location;lat;lon;timestamp;P1;durP1;ratioP1;P2;durP2;ratioP2
69970;SDS011;57301;50.328;8.542;2023-07-22T00:02:23;11.90;;;7.28;;
69970;SDS011;57301;50.328;8.542;2023-07-22T00:04:50;11.93;;;7.88;;
69970;SDS011;57301;50.328;8.542;2023-07-22T00:07:18;11.15;;;7.65;;
69970;SDS011;57301;50.328;8.542;2023-07-22T00:09:45;14.40;;;7.47;;
69970;SDS011;57301;50.328;8.542;2023-07-22T00:12:11;11.00;;;7.45;;
69970;SDS011;57301;50.328;8.542;2023-07-22T00:14:40;10.52;;;7.35;;
69970;SDS011;57301;50.328;8.542;2023-07-22T00:17:07;10.25;;;7.40;;
69970;SDS011;57301;50.328;8.542;2023-07-22T00:19:34;15.73;;;8.60;;
69970;SDS011;57301;50.328;8.542;2023-07-22T00:22:01;12.40;;;7.83;;
69970;SDS011;57301;50.328;8.542;2023-07-22T00:24:27;12.27;;;7.43;;
69970;SDS011;57301;50.328;8.542;2023-07-22T00:26:55;10.40;;;6.55;;
69970;SDS011;57301;50.328;8.542;2023-07-22T00:29:21;8.63;;;5.85;;
69970;SDS011;57301;50.328;8.542;2023-07-22T00:31:48;12.63;;;6.72;;
69970;SDS011;57301;50.328;8.542;2023-07-22T00:34:15;10.70;;;6.43;;
69970;SDS011;57301;50.328;8.542;2023-07-22T00:36:42;10.68;;;6.25;;
69970;SDS011;57301;50.328;8.542;2023-07-22T00:39:10;10.18;;;7.03;;
69970;SDS011;57301;50.328;8.542;2023-07-22T00:41:38;11.15;;;6.82;;
69970;SDS011;57301;50.328;8.542;2023-07-22T00:44:04;12.10;;;7.72;;
69970;SDS011;57301;50.328;8.542;2023-07-22T00:46:30;10.57;;;7.23;;
69970;SDS011;57301;50.328;8.542;2023-07-22T00:48:57;9.32;;;6.93;;
69970;SDS011;57301;50.328;8.542;2023-07-22T00:51:24;12.77;;;6.53;;
69970;SDS011;57301;50.328;8.542;2023-07-22T00:53:50;9.45;;;6.93;;
69970;SDS011;57301;50.328;8.542;2023-07-22T00:56:17;9.63;;;6.57;;
69970;SDS011;57301;50.328;8.542;2023-07-22T00:58:43;12.23;;;6.93;;
69970;SDS011;57301;50.328;8.542;2023-07-22T01:01:10;10.40;;;6.60;;
69970;SDS011;57301;50.328;8.542;2023-07-22T01:03:36;10.82;;;7.10;;
69970;SDS011;57301;50.328;8.542;2023-07-22T01:06:03;9.98;;;6.63;;
69970;SDS011;57301;50.328;8.542;2023-07-22T01:08:30;9.88;;;7.20;;
69970;SDS011;57301;50.328;8.542;2023-07-22T01:10:57;10.27;;;7.40;;
69970;SDS011;57301;50.328;8.542;2023-07-22T01:13:23;13.93;;;8.15;;
69970;SDS011;57301;50.328;8.542;2023-07-22T01:15:50;13.82;;;8.63;;
69970;SDS011;57301;50.328;8.542;2023-07-22T01:18:16;13.27;;;8.85;;
69970;SDS011;57301;50.328;8.542;2023-07-22T01:20:43;12.07;;;8.43;;
69970;SDS011;57301;50.328;8.542;2023-07-22T01:23:11;16.20;;;7.33;;
69970;SDS011;57301;50.328;8.542;2023-07-22T01:25:37;17.77;;;7.90;;
69970;SDS011;57301;50.328;8.542;2023-07-22T01:28:08;10.10;;;6.63;;
69970;SDS011;57301;50.328;8.542;2023-07-22T01:30:35;13.60;;;6.93;;
69970;SDS011;57301;50.328;8.542;2023-07-22T01:33:02;12.60;;;6.50;;
69970;SDS011;57301;50.328;8.542;2023-07-22T01:35:29;11.27;;;6.97;;
69970;SDS011;57301;50.328;8.542;2023-07-22T01:37:55;12.90;;;6.10;;
69970;SDS011;57301;50.328;8.542;2023-07-22T01:40:23;9.98;;;6.05;;
69970;SDS011;57301;50.328;8.542;2023-07-22T01:42:51;10.95;;;6.45;;
69970;SDS011;57301;50.328;8.542;2023-07-22T01:45:17;10.30;;;6.78;;
69970;SDS011;57301;50.328;8.542;2023-07-22T01:47:44;10.27;;;6.77;;
69970;SDS011;57301;50.328;8.542;2023-07-22T01:50:10;11.75;;;6.85;;
69970;SDS011;57301;50.328;8.542;2023-07-22T01:52:37;14.93;;;6.13;;
69970;SDS011;57301;50.328;8.542;2023-07-22T01:55:04;13.88;;;6.38;;
69970;SDS011;57301;50.328;8.542;2023-07-22T01:57:32;11.25;;;6.68;;
69970;SDS011;57301;50.328;8.542;2023-07-22T01:59:59;12.63;;;6.63;;
69970;SDS011;57301;50.328;8.542;2023-07-22T02:02:26;8.80;;;6.10;;
69970;SDS011;57301;50.328;8.542;2023-07-22T02:04:52;11.57;;;7.13;;
69970;SDS011;57301;50.328;8.542;2023-07-22T02:07:19;10.20;;;5.85;;
69970;SDS011;57301;50.328;8.542;2023-07-22T02:09:46;8.07;;;5.95;;
69970;SDS011;57301;50.328;8.542;2023-07-22T02:12:12;13.03;;;5.80;;
69970;SDS011;57301;50.328;8.542;2023-07-22T02:14:39;12.23;;;6.45;;
69970;SDS011;57301;50.328;8.542;2023-07-22T02:17:06;12.77;;;6.40;;
69970;SDS011;57301;50.328;8.542;2023-07-22T02:19:35;11.90;;;7.28;;
69970;SDS011;57301;50.328;8.542;2023-07-22T02:22:03;15.40;;;6.53;;
69970;SDS011;57301;50.328;8.542;2023-07-22T02:24:30;12.70;;;6.50;;
69970;SDS011;57301;50.328;8.542;2023-07-22T02:26:57;11.02;;;6.10;;
69970;SDS011;57301;50.328;8.542;2023-07-22T02:29:24;11.38;;;5.93;;
69970;SDS011;57301;50.328;8.542;2023-07-22T02:31:51;17.35;;;7.45;;
69970;SDS011;57301;50.328;8.542;2023-07-22T02:34:17;13.05;;;6.22;;
69970;SDS011;57301;50.328;8.542;2023-07-22T02:36:44;9.60;;;5.87;;
69970;SDS011;57301;50.328;8.542;2023-07-22T02:39:10;9.30;;;6.30;;
69970;SDS011;57301;50.328;8.542;2023-07-22T02:41:36;11.43;;;6.82;;
69970;SDS011;57301;50.328;8.542;2023-07-22T02:44:03;11.18;;;6.70;;
69970;SDS011;57301;50.328;8.542;2023-07-22T02:46:29;11.07;;;6.05;;
69970;SDS011;57301;50.328;8.542;2023-07-22T02:48:57;13.50;;;7.63;;
69970;SDS011;57301;50.328;8.542;2023-07-22T02:51:25;12.75;;;6.25;;
69970;SDS011;57301;50.328;8.542;2023-07-22T02:53:51;9.50;;;6.20;;
69970;SDS011;57301;50.328;8.542;2023-07-22T02:56:17;13.18;;;7.00;;
69970;SDS011;57301;50.328;8.542;2023-07-22T02:58:44;13.73;;;7.15;;
69970;SDS011;57301;50.328;8.542;2023-07-22T03:01:10;11.77;;;7.50;;
69970;SDS011;57301;50.328;8.542;2023-07-22T03:03:37;9.65;;;6.97;;
69970;SDS011;57301;50.328;8.542;2023-07-22T03:06:06;10.65;;;6.72;;
69970;SDS011;57301;50.328;8.542;2023-07-22T03:08:33;18.23;;;7.00;;
69970;SDS011;57301;50.328;8.542;2023-07-22T03:10:59;10.32;;;5.85;;
69970;SDS011;57301;50.328;8.542;2023-07-22T03:13:26;12.93;;;7.50;;
69970;SDS011;57301;50.328;8.542;2023-07-22T03:15:56;15.23;;;7.93;;
69970;SDS011;57301;50.328;8.542;2023-07-22T03:18:23;11.40;;;6.85;;
69970;SDS011;57301;50.328;8.542;2023-07-22T03:20:50;14.18;;;6.63;;
69970;SDS011;57301;50.328;8.542;2023-07-22T03:23:17;13.23;;;7.45;;
69970;SDS011;57301;50.328;8.542;2023-07-22T03:25:44;12.93;;;7.37;;
69970;SDS011;57301;50.328;8.542;2023-07-22T03:28:12;11.20;;;6.65;;
69970;SDS011;57301;50.328;8.542;2023-07-22T03:30:38;14.02;;;6.50;;
69970;SDS011;57301;50.328;8.542;2023-07-22T03:33:05;9.52;;;5.78;;
69970;SDS011;57301;50.328;8.542;2023-07-22T03:35:32;12.63;;;5.80;;
69970;SDS011;57301;50.328;8.542;2023-07-22T03:37:59;8.97;;;5.27;;
69970;SDS011;57301;50.328;8.542;2023-07-22T03:40:26;11.82;;;5.80;;
69970;SDS011;57301;50.328;8.542;2023-07-22T03:42:55;15.02;;;6.50;;
69970;SDS011;57301;50.328;8.542;2023-07-22T03:45:22;14.45;;;5.93;;
69970;SDS011;57301;50.328;8.542;2023-07-22T03:47:52;10.38;;;6.40;;
69970;SDS011;57301;50.328;8.542;2023-07-22T03:50:22;13.33;;;6.33;;
69970;SDS011;57301;50.328;8.542;2023-07-22T03:52:48;13.35;;;6.32;;
69970;SDS011;57301;50.328;8.542;2023-07-22T03:55:15;12.93;;;6.40;;
69970;SDS011;57301;50.328;8.542;2023-07-22T03:57:41;11.65;;;5.78;;
69970;SDS011;57301;50.328;8.542;2023-07-22T04:00:08;14.55;;;5.85;;
69970;SDS011;57301;50.328;8.542;2023-07-22T04:02:39;14.83;;;6.30;;
69970;SDS011;57301;50.328;8.542;2023-07-22T04:05:05;15.52;;;6.57;;
69970;SDS011;57301;50.328;8.542;2023-07-22T04:07:32;14.68;;;6.15;;
69970;SDS011;57301;50.328;8.542;2023-07-22T04:09:58;10.27;;;5.85;;
69970;SDS011;57301;50.328;8.542;2023-07-22T04:12:25;9.50;;;6.03;;
69970;SDS011;57301;50.328;8.542;2023-07-22T04:14:51;11.03;;;6.20;;
69970;SDS011;57301;50.328;8.542;2023-07-22T04:17:18;11.25;;;5.75;;
69970;SDS011;57301;50.328;8.542;2023-07-22T04:19:44;8.60;;;5.00;;
69970;SDS011;57301;50.328;8.542;2023-07-22T04:22:11;10.27;;;5.30;;
69970;SDS011;57301;50.328;8.542;2023-07-22T04:24:38;8.57;;;5.38;;
69970;SDS011;57301;50.328;8.542;2023-07-22T04:27:05;12.73;;;6.20;;
69970;SDS011;57301;50.328;8.542;2023-07-22T04:29:32;12.02;;;5.90;;
69970;SDS011;57301;50.328;8.542;2023-07-22T04:31:58;11.05;;;5.90;;
69970;SDS011;57301;50.328;8.542;2023-07-22T04:34:29;7.20;;;4.80;;
69970;SDS011;57301;50.328;8.542;2023-07-22T04:36:56;7.70;;;5.10;;
69970;SDS011;57301;50.328;8.542;2023-07-22T04:39:23;11.23;;;6.17;;
69970;SDS011;57301;50.328;8.542;2023-07-22T04:41:50;9.48;;;6.50;;
69970;SDS011;57301;50.328;8.542;2023-07-22T04:44:18;12.23;;;6.47;;
69970;SDS011;57301;50.328;8.542;2023-07-22T04:46:45;14.95;;;7.55;;
69970;SDS011;57301;50.328;8.542;2023-07-22T04:49:12;11.90;;;6.95;;
69970;SDS011;57301;50.328;8.542;2023-07-22T04:51:39;10.60;;;6.50;;
69970;SDS011;57301;50.328;8.542;2023-07-22T04:54:05;13.32;;;7.35;;
69970;SDS011;57301;50.328;8.542;2023-07-22T04:56:32;12.50;;;7.00;;
69970;SDS011;57301;50.328;8.542;2023-07-22T04:58:58;11.52;;;7.35;;
69970;SDS011;57301;50.328;8.542;2023-07-22T05:01:25;13.80;;;7.90;;
69970;SDS011;57301;50.328;8.542;2023-07-22T05:03:51;15.67;;;7.20;;
69970;SDS011;57301;50.328;8.542;2023-07-22T05:06:19;19.85;;;11.23;;
69970;SDS011;57301;50.328;8.542;2023-07-22T05:08:45;14.10;;;7.43;;
69970;SDS011;57301;50.328;8.542;2023-07-22T05:11:11;16.17;;;7.55;;
69970;SDS011;57301;50.328;8.542;2023-07-22T05:13:38;12.88;;;7.03;;
69970;SDS011;57301;50.328;8.542;2023-07-22T05:16:04;14.53;;;7.50;;
69970;SDS011;57301;50.328;8.542;2023-07-22T05:18:31;13.73;;;8.02;;
69970;SDS011;57301;50.328;8.542;2023-07-22T05:20:57;14.48;;;7.47;;
69970;SDS011;57301;50.328;8.542;2023-07-22T05:23:24;13.40;;;7.78;;
69970;SDS011;57301;50.328;8.542;2023-07-22T05:25:51;11.90;;;7.20;;
69970;SDS011;57301;50.328;8.542;2023-07-22T05:28:18;11.03;;;7.53;;
69970;SDS011;57301;50.328;8.542;2023-07-22T05:30:47;12.27;;;6.90;;
69970;SDS011;57301;50.328;8.542;2023-07-22T05:33:14;16.60;;;9.43;;
69970;SDS011;57301;50.328;8.542;2023-07-22T05:35:40;15.40;;;7.93;;
69970;SDS011;57301;50.328;8.542;2023-07-22T05:38:07;13.40;;;7.47;;
69970;SDS011;57301;50.328;8.542;2023-07-22T05:40:33;12.03;;;6.87;;
69970;SDS011;57301;50.328;8.542;2023-07-22T05:43:00;11.98;;;6.53;;
69970;SDS011;57301;50.328;8.542;2023-07-22T05:45:27;14.40;;;8.23;;
69970;SDS011;57301;50.328;8.542;2023-07-22T05:47:53;11.13;;;7.38;;
69970;SDS011;57301;50.328;8.542;2023-07-22T05:50:20;10.18;;;6.20;;
69970;SDS011;57301;50.328;8.542;2023-07-22T05:52:46;10.87;;;5.93;;
69970;SDS011;57301;50.328;8.542;2023-07-22T05:55:14;14.20;;;6.07;;
69970;SDS011;57301;50.328;8.542;2023-07-22T05:57:41;9.70;;;6.72;;
69970;SDS011;57301;50.328;8.542;2023-07-22T06:00:07;10.32;;;5.65;;
69970;SDS011;57301;50.328;8.542;2023-07-22T06:02:35;10.18;;;5.78;;
69970;SDS011;57301;50.328;8.542;2023-07-22T06:05:02;11.43;;;6.53;;
69970;SDS011;57301;50.328;8.542;2023-07-22T06:07:30;10.18;;;6.72;;
69970;SDS011;57301;50.328;8.542;2023-07-22T06:09:56;12.38;;;6.65;;
69970;SDS011;57301;50.328;8.542;2023-07-22T06:12:23;10.25;;;6.03;;
69970;SDS011;57301;50.328;8.542;2023-07-22T06:14:54;12.38;;;6.32;;
69970;SDS011;57301;50.328;8.542;2023-07-22T06:17:21;11.47;;;7.13;;
69970;SDS011;57301;50.328;8.542;2023-07-22T06:19:47;11.25;;;6.90;;
69970;SDS011;57301;50.328;8.542;2023-07-22T06:22:14;9.10;;;6.70;;
69970;SDS011;57301;50.328;8.542;2023-07-22T06:24:41;8.90;;;5.85;;
69970;SDS011;57301;50.328;8.542;2023-07-22T06:27:07;10.45;;;6.63;;
69970;SDS011;57301;50.328;8.542;2023-07-22T06:29:34;12.03;;;6.83;;
69970;SDS011;57301;50.328;8.542;2023-07-22T06:32:00;10.13;;;6.38;;
69970;SDS011;57301;50.328;8.542;2023-07-22T06:34:27;9.48;;;6.13;;
69970;SDS011;57301;50.328;8.542;2023-07-22T06:36:53;25.55;;;15.00;;
69970;SDS011;57301;50.328;8.542;2023-07-22T06:39:20;10.75;;;6.75;;
69970;SDS011;57301;50.328;8.542;2023-07-22T06:41:46;9.37;;;6.47;;
69970;SDS011;57301;50.328;8.542;2023-07-22T06:44:13;14.13;;;6.80;;
69970;SDS011;57301;50.328;8.542;2023-07-22T06:46:39;9.05;;;6.60;;
69970;SDS011;57301;50.328;8.542;2023-07-22T06:49:07;9.00;;;6.15;;
69970;SDS011;57301;50.328;8.542;2023-07-22T06:51:33;9.50;;;6.10;;
69970;SDS011;57301;50.328;8.542;2023-07-22T06:54:01;8.83;;;5.93;;
69970;SDS011;57301;50.328;8.542;2023-07-22T06:56:28;7.65;;;5.63;;
69970;SDS011;57301;50.328;8.542;2023-07-22T06:58:55;9.60;;;5.55;;
69970;SDS011;57301;50.328;8.542;2023-07-22T07:01:22;9.65;;;5.68;;
69970;SDS011;57301;50.328;8.542;2023-07-22T07:03:49;9.55;;;5.80;;
69970;SDS011;57301;50.328;8.542;2023-07-22T07:06:16;9.87;;;6.00;;
69970;SDS011;57301;50.328;8.542;2023-07-22T07:08:42;7.35;;;5.35;;
69970;SDS011;57301;50.328;8.542;2023-07-22T07:11:09;9.45;;;5.72;;
69970;SDS011;57301;50.328;8.542;2023-07-22T07:13:35;8.63;;;5.85;;
69970;SDS011;57301;50.328;8.542;2023-07-22T07:16:21;10.18;;;5.43;;
69970;SDS011;57301;50.328;8.542;2023-07-22T07:18:50;8.87;;;6.17;;
69970;SDS011;57301;50.328;8.542;2023-07-22T07:21:18;9.18;;;5.38;;
69970;SDS011;57301;50.328;8.542;2023-07-22T07:23:46;8.55;;;5.40;;
69970;SDS011;57301;50.328;8.542;2023-07-22T07:26:14;7.38;;;5.07;;
69970;SDS011;57301;50.328;8.542;2023-07-22T07:28:41;8.15;;;5.28;;
69970;SDS011;57301;50.328;8.542;2023-07-22T07:31:07;6.10;;;4.80;;
69970;SDS011;57301;50.328;8.542;2023-07-22T07:33:34;13.90;;;9.15;;
69970;SDS011;57301;50.328;8.542;2023-07-22T07:36:01;17.85;;;11.82;;
69970;SDS011;57301;50.328;8.542;2023-07-22T07:38:27;8.73;;;5.40;;
69970;SDS011;57301;50.328;8.542;2023-07-22T07:40:58;7.35;;;5.07;;
69970;SDS011;57301;50.328;8.542;2023-07-22T07:43:26;7.07;;;4.63;;
69970;SDS011;57301;50.328;8.542;2023-07-22T07:48:59;6.90;;;5.57;;
69970;SDS011;57301;50.328;8.542;2023-07-22T07:51:27;6.47;;;4.80;;
69970;SDS011;57301;50.328;8.542;2023-07-22T07:53:56;8.57;;;4.70;;
69970;SDS011;57301;50.328;8.542;2023-07-22T07:56:24;8.13;;;4.63;;
69970;SDS011;57301;50.328;8.542;2023-07-22T07:58:52;7.00;;;4.47;;
69970;SDS011;57301;50.328;8.542;2023-07-22T08:01:20;8.07;;;5.00;;
69970;SDS011;57301;50.328;8.542;2023-07-22T08:03:47;9.40;;;4.72;;
69970;SDS011;57301;50.328;8.542;2023-07-22T08:06:14;6.55;;;4.60;;
69970;SDS011;57301;50.328;8.542;2023-07-22T08:08:48;8.57;;;4.63;;
69970;SDS011;57301;50.328;8.542;2023-07-22T08:11:15;6.82;;;4.63;;
69970;SDS011;57301;50.328;8.542;2023-07-22T08:13:42;6.40;;;4.50;;
69970;SDS011;57301;50.328;8.542;2023-07-22T08:16:11;6.18;;;4.47;;
69970;SDS011;57301;50.328;8.542;2023-07-22T08:18:39;8.77;;;5.40;;
69970;SDS011;57301;50.328;8.542;2023-07-22T08:21:06;6.63;;;4.80;;
69970;SDS011;57301;50.328;8.542;2023-07-22T08:23:33;8.93;;;5.05;;
69970;SDS011;57301;50.328;8.542;2023-07-22T08:26:00;7.15;;;4.70;;
69970;SDS011;57301;50.328;8.542;2023-07-22T08:28:27;7.15;;;4.88;;
69970;SDS011;57301;50.328;8.542;2023-07-22T08:30:54;7.13;;;4.10;;
69970;SDS011;57301;50.328;8.542;2023-07-22T08:33:22;5.93;;;4.30;;
69970;SDS011;57301;50.328;8.542;2023-07-22T08:36:04;7.32;;;4.68;;
69970;SDS011;57301;50.328;8.542;2023-07-22T08:38:31;7.32;;;4.70;;
69970;SDS011;57301;50.328;8.542;2023-07-22T08:40:58;6.93;;;4.30;;
69970;SDS011;57301;50.328;8.542;2023-07-22T08:43:24;6.38;;;3.72;;
69970;SDS011;57301;50.328;8.542;2023-07-22T08:45:54;5.73;;;3.77;;
69970;SDS011;57301;50.328;8.542;2023-07-22T08:48:24;7.03;;;3.83;;
69970;SDS011;57301;50.328;8.542;2023-07-22T08:50:59;6.32;;;4.00;;
69970;SDS011;57301;50.328;8.542;2023-07-22T08:53:30;7.97;;;4.25;;
69970;SDS011;57301;50.328;8.542;2023-07-22T08:55:59;7.88;;;4.00;;
69970;SDS011;57301;50.328;8.542;2023-07-22T08:58:26;7.40;;;3.90;;
69970;SDS011;57301;50.328;8.542;2023-07-22T09:00:54;7.00;;;4.07;;
69970;SDS011;57301;50.328;8.542;2023-07-22T09:03:22;7.80;;;4.30;;
69970;SDS011;57301;50.328;8.542;2023-07-22T09:05:49;7.47;;;4.00;;
69970;SDS011;57301;50.328;8.542;2023-07-22T09:08:17;7.35;;;4.22;;
69970;SDS011;57301;50.328;8.542;2023-07-22T09:10:43;7.80;;;4.47;;
69970;SDS011;57301;50.328;8.542;2023-07-22T09:13:12;5.40;;;3.97;;
69970;SDS011;57301;50.328;8.542;2023-07-22T09:15:39;6.07;;;3.97;;
69970;SDS011;57301;50.328;8.542;2023-07-22T09:18:07;5.93;;;3.80;;
69970;SDS011;57301;50.328;8.542;2023-07-22T09:20:34;5.63;;;4.18;;
69970;SDS011;57301;50.328;8.542;2023-07-22T09:23:00;6.47;;;4.00;;
69970;SDS011;57301;50.328;8.542;2023-07-22T09:25:39;7.05;;;4.00;;
69970;SDS011;57301;50.328;8.542;2023-07-22T09:28:07;12.45;;;4.15;;
69970;SDS011;57301;50.328;8.542;2023-07-22T09:30:34;7.60;;;4.32;;
69970;SDS011;57301;50.328;8.542;2023-07-22T09:33:19;10.85;;;7.20;;
69970;SDS011;57301;50.328;8.542;2023-07-22T09:35:47;7.23;;;4.30;;
69970;SDS011;57301;50.328;8.542;2023-07-22T09:38:22;5.53;;;3.80;;
69970;SDS011;57301;50.328;8.542;2023-07-22T09:40:50;5.63;;;4.03;;
69970;SDS011;57301;50.328;8.542;2023-07-22T09:43:16;5.97;;;3.72;;
69970;SDS011;57301;50.328;8.542;2023-07-22T09:45:46;6.72;;;3.80;;
69970;SDS011;57301;50.328;8.542;2023-07-22T09:48:13;6.77;;;3.87;;
69970;SDS011;57301;50.328;8.542;2023-07-22T09:50:40;6.57;;;4.05;;
69970;SDS011;57301;50.328;8.542;2023-07-22T09:53:06;6.95;;;4.10;;
69970;SDS011;57301;50.328;8.542;2023-07-22T09:55:33;7.80;;;4.75;;
69970;SDS011;57301;50.328;8.542;2023-07-22T09:58:04;6.20;;;4.10;;
69970;SDS011;57301;50.328;8.542;2023-07-22T10:00:37;7.47;;;4.23;;
69970;SDS011;57301;50.328;8.542;2023-07-22T10:03:10;6.53;;;4.10;;
69970;SDS011;57301;50.328;8.542;2023-07-22T10:05:39;8.20;;;4.35;;
69970;SDS011;57301;50.328;8.542;2023-07-22T10:08:08;5.65;;;3.95;;
69970;SDS011;57301;50.328;8.542;2023-07-22T10:10:38;7.53;;;4.40;;
69970;SDS011;57301;50.328;8.542;2023-07-22T10:13:05;6.27;;;4.57;;
69970;SDS011;57301;50.328;8.542;2023-07-22T10:15:32;6.45;;;3.83;;
69970;SDS011;57301;50.328;8.542;2023-07-22T10:18:01;6.28;;;4.30;;
69970;SDS011;57301;50.328;8.542;2023-07-22T10:20:29;7.47;;;4.50;;
69970;SDS011;57301;50.328;8.542;2023-07-22T10:22:56;7.47;;;4.35;;
69970;SDS011;57301;50.328;8.542;2023-07-22T10:25:22;6.47;;;4.23;;
69970;SDS011;57301;50.328;8.542;2023-07-22T10:27:51;8.27;;;4.07;;
69970;SDS011;57301;50.328;8.542;2023-07-22T10:30:18;7.10;;;4.10;;
69970;SDS011;57301;50.328;8.542;2023-07-22T10:32:48;5.65;;;4.13;;
69970;SDS011;57301;50.328;8.542;2023-07-22T10:38:17;5.97;;;4.07;;
69970;SDS011;57301;50.328;8.542;2023-07-22T10:40:46;6.70;;;3.97;;
69970;SDS011;57301;50.328;8.542;2023-07-22T10:43:17;6.75;;;4.30;;
69970;SDS011;57301;50.328;8.542;2023-07-22T10:45:50;5.85;;;4.10;;
69970;SDS011;57301;50.328;8.542;2023-07-22T10:48:18;6.90;;;4.07;;
69970;SDS011;57301;50.328;8.542;2023-07-22T10:50:46;6.87;;;4.13;;
69970;SDS011;57301;50.328;8.542;2023-07-22T11:04:02;8.83;;;4.20;;
69970;SDS011;57301;50.328;8.542;2023-07-22T11:06:32;7.28;;;4.07;;
69970;SDS011;57301;50.328;8.542;2023-07-22T11:08:59;6.63;;;4.05;;
69970;SDS011;57301;50.328;8.542;2023-07-22T11:11:34;6.90;;;3.63;;
69970;SDS011;57301;50.328;8.542;2023-07-22T11:14:15;6.45;;;4.20;;
69970;SDS011;57301;50.328;8.542;2023-07-22T11:16:44;9.33;;;4.20;;
69970;SDS011;57301;50.328;8.542;2023-07-22T11:19:15;5.63;;;3.70;;
69970;SDS011;57301;50.328;8.542;2023-07-22T11:21:44;6.00;;;3.63;;
69970;SDS011;57301;50.328;8.542;2023-07-22T11:24:12;6.60;;;3.88;;
69970;SDS011;57301;50.328;8.542;2023-07-22T11:26:39;8.13;;;4.35;;
69970;SDS011;57301;50.328;8.542;2023-07-22T11:29:08;6.53;;;3.83;;
69970;SDS011;57301;50.328;8.542;2023-07-22T11:31:39;5.97;;;4.43;;
69970;SDS011;57301;50.328;8.542;2023-07-22T11:34:12;7.55;;;4.15;;
69970;SDS011;57301;50.328;8.542;2023-07-22T11:36:39;6.63;;;4.30;;
69970;SDS011;57301;50.328;8.542;2023-07-22T11:39:11;6.47;;;3.90;;
69970;SDS011;57301;50.328;8.542;2023-07-22T11:41:39;6.27;;;4.50;;
69970;SDS011;57301;50.328;8.542;2023-07-22T11:44:13;8.10;;;4.30;;
69970;SDS011;57301;50.328;8.542;2023-07-22T11:49:23;5.35;;;3.72;;
69970;SDS011;57301;50.328;8.542;2023-07-22T11:52:11;6.63;;;4.05;;
69970;SDS011;57301;50.328;8.542;2023-07-22T11:54:44;6.63;;;4.20;;
69970;SDS011;57301;50.328;8.542;2023-07-22T11:57:15;5.20;;;4.03;;
69970;SDS011;57301;50.328;8.542;2023-07-22T11:59:45;6.47;;;4.07;;
69970;SDS011;57301;50.328;8.542;2023-07-22T12:02:16;7.05;;;3.95;;
69970;SDS011;57301;50.328;8.542;2023-07-22T12:04:57;6.95;;;4.20;;
69970;SDS011;57301;50.328;8.542;2023-07-22T12:07:26;6.50;;;4.00;;
69970;SDS011;57301;50.328;8.542;2023-07-22T12:10:00;6.43;;;4.40;;
69970;SDS011;57301;50.328;8.542;2023-07-22T12:12:36;5.63;;;3.80;;
69970;SDS011;57301;50.328;8.542;2023-07-22T12:17:42;7.32;;;4.15;;
69970;SDS011;57301;50.328;8.542;2023-07-22T12:20:23;8.20;;;4.17;;
69970;SDS011;57301;50.328;8.542;2023-07-22T12:22:52;6.47;;;3.90;;
69970;SDS011;57301;50.328;8.542;2023-07-22T12:25:19;5.85;;;3.92;;
69970;SDS011;57301;50.328;8.542;2023-07-22T12:27:46;7.68;;;4.20;;
69970;SDS011;57301;50.328;8.542;2023-07-22T12:30:12;5.93;;;3.80;;
69970;SDS011;57301;50.328;8.542;2023-07-22T12:32:39;7.27;;;4.47;;
69970;SDS011;57301;50.328;8.542;2023-07-22T12:35:06;7.45;;;4.25;;
69970;SDS011;57301;50.328;8.542;2023-07-22T12:37:33;5.80;;;3.72;;
69970;SDS011;57301;50.328;8.542;2023-07-22T12:40:00;5.72;;;4.00;;
69970;SDS011;57301;50.328;8.542;2023-07-22T12:42:27;7.15;;;4.20;;
69970;SDS011;57301;50.328;8.542;2023-07-22T12:44:53;6.10;;;4.00;;
69970;SDS011;57301;50.328;8.542;2023-07-22T12:47:20;5.72;;;4.10;;
69970;SDS011;57301;50.328;8.542;2023-07-22T12:49:46;12.27;;;4.25;;
69970;SDS011;57301;50.328;8.542;2023-07-22T12:52:13;5.65;;;3.85;;
69970;SDS011;57301;50.328;8.542;2023-07-22T12:54:40;6.82;;;4.20;;
69970;SDS011;57301;50.328;8.542;2023-07-22T12:57:07;6.83;;;4.50;;
69970;SDS011;57301;50.328;8.542;2023-07-22T12:59:33;7.68;;;4.28;;
69970;SDS011;57301;50.328;8.542;2023-07-22T13:02:00;6.03;;;4.13;;
69970;SDS011;57301;50.328;8.542;2023-07-22T13:04:27;7.20;;;3.92;;
69970;SDS011;57301;50.328;8.542;2023-07-22T13:06:53;7.18;;;4.03;;
69970;SDS011;57301;50.328;8.542;2023-07-22T13:09:20;6.50;;;3.97;;
69970;SDS011;57301;50.328;8.542;2023-07-22T13:11:46;8.38;;;3.90;;
69970;SDS011;57301;50.328;8.542;2023-07-22T13:14:13;7.88;;;5.05;;
69970;SDS011;57301;50.328;8.542;2023-07-22T13:16:40;7.25;;;4.05;;
69970;SDS011;57301;50.328;8.542;2023-07-22T13:19:09;5.88;;;3.92;;
69970;SDS011;57301;50.328;8.542;2023-07-22T13:21:36;5.83;;;4.03;;
69970;SDS011;57301;50.328;8.542;2023-07-22T13:24:03;6.35;;;3.88;;
69970;SDS011;57301;50.328;8.542;2023-07-22T13:26:29;7.05;;;4.10;;
69970;SDS011;57301;50.328;8.542;2023-07-22T13:28:56;6.05;;;3.72;;
69970;SDS011;57301;50.328;8.542;2023-07-22T13:31:22;5.95;;;4.00;;
69970;SDS011;57301;50.328;8.542;2023-07-22T13:33:49;8.20;;;4.30;;
69970;SDS011;57301;50.328;8.542;2023-07-22T13:36:16;5.63;;;4.25;;
69970;SDS011;57301;50.328;8.542;2023-07-22T13:38:42;6.60;;;3.78;;
69970;SDS011;57301;50.328;8.542;2023-07-22T13:41:08;7.45;;;3.83;;
69970;SDS011;57301;50.328;8.542;2023-07-22T13:43:35;6.97;;;4.38;;
69970;SDS011;57301;50.328;8.542;2023-07-22T13:46:01;8.47;;;4.27;;
69970;SDS011;57301;50.328;8.542;2023-07-22T13:48:28;6.32;;;4.00;;
69970;SDS011;57301;50.328;8.542;2023-07-22T13:50:54;5.95;;;4.20;;
69970;SDS011;57301;50.328;8.542;2023-07-22T13:53:21;5.35;;;3.85;;
69970;SDS011;57301;50.328;8.542;2023-07-22T13:55:47;5.68;;;4.03;;
69970;SDS011;57301;50.328;8.542;2023-07-22T13:58:18;8.03;;;4.50;;
69970;SDS011;57301;50.328;8.542;2023-07-22T14:00:44;5.80;;;4.40;;
69970;SDS011;57301;50.328;8.542;2023-07-22T14:03:11;6.65;;;4.10;;
69970;SDS011;57301;50.328;8.542;2023-07-22T14:05:38;8.73;;;4.18;;
69970;SDS011;57301;50.328;8.542;2023-07-22T14:08:04;6.88;;;4.07;;
69970;SDS011;57301;50.328;8.542;2023-07-22T14:10:31;6.10;;;4.40;;
69970;SDS011;57301;50.328;8.542;2023-07-22T14:12:57;6.05;;;3.97;;
69970;SDS011;57301;50.328;8.542;2023-07-22T14:15:24;6.95;;;4.40;;
69970;SDS011;57301;50.328;8.542;2023-07-22T14:17:50;7.25;;;3.92;;
69970;SDS011;57301;50.328;8.542;2023-07-22T14:20:17;6.93;;;3.90;;
69970;SDS011;57301;50.328;8.542;2023-07-22T14:22:43;6.50;;;4.20;;
69970;SDS011;57301;50.328;8.542;2023-07-22T14:25:10;5.68;;;4.13;;
69970;SDS011;57301;50.328;8.542;2023-07-22T14:27:38;7.78;;;4.05;;
69970;SDS011;57301;50.328;8.542;2023-07-22T14:30:06;6.57;;;4.20;;
69970;SDS011;57301;50.328;8.542;2023-07-22T14:32:33;7.35;;;4.13;;
69970;SDS011;57301;50.328;8.542;2023-07-22T14:35:00;6.23;;;3.90;;
69970;SDS011;57301;50.328;8.542;2023-07-22T14:37:26;6.60;;;4.00;;
69970;SDS011;57301;50.328;8.542;2023-07-22T14:39:54;7.15;;;4.15;;
69970;SDS011;57301;50.328;8.542;2023-07-22T14:42:20;7.18;;;3.75;;
69970;SDS011;57301;50.328;8.542;2023-07-22T14:44:47;6.75;;;3.90;;
69970;SDS011;57301;50.328;8.542;2023-07-22T14:47:13;8.00;;;4.27;;
69970;SDS011;57301;50.328;8.542;2023-07-22T14:49:40;7.45;;;4.45;;
69970;SDS011;57301;50.328;8.542;2023-07-22T14:52:06;6.32;;;4.03;;
69970;SDS011;57301;50.328;8.542;2023-07-22T14:54:33;7.38;;;4.20;;
69970;SDS011;57301;50.328;8.542;2023-07-22T14:57:00;8.43;;;4.50;;
69970;SDS011;57301;50.328;8.542;2023-07-22T14:59:26;14.80;;;5.90;;
69970;SDS011;57301;50.328;8.542;2023-07-22T15:01:53;6.55;;;3.97;;
69970;SDS011;57301;50.328;8.542;2023-07-22T15:04:20;24.58;;;14.15;;
69970;SDS011;57301;50.328;8.542;2023-07-22T15:06:47;12.77;;;6.15;;
69970;SDS011;57301;50.328;8.542;2023-07-22T15:09:13;8.13;;;4.88;;